createdAt,value
2018-04-28T00:02:46.386Z,11.27
2018-04-28T00:07:47.356Z,11.14
2018-04-28T00:12:48.324Z,11.29
2018-04-28T00:17:49.349Z,10.93
2018-04-28T00:23:05.230Z,11.04
2018-04-28T00:28:07.176Z,11.05
2018-04-28T00:33:23.078Z,11.05
2018-04-28T00:38:24.094Z,10.98
2018-04-28T00:43:25.065Z,10.89
2018-04-28T00:48:47.763Z,10.86
2018-04-28T00:53:48.715Z,10.68
2018-04-28T00:58:51.563Z,10.70
2018-04-28T01:03:53.425Z,10.69
2018-04-28T01:08:55.361Z,10.97
2018-04-28T01:13:57.294Z,10.76
2018-04-28T01:18:58.273Z,10.79
2018-04-28T01:24:02.056Z,10.54
2018-04-28T01:29:06.987Z,10.57
2018-04-28T01:34:14.999Z,10.45
2018-04-28T01:39:17.856Z,10.31
2018-04-28T01:44:43.710Z,10.56
2018-04-28T01:49:49.668Z,10.42
2018-04-28T01:54:51.503Z,10.55
2018-04-28T01:59:53.439Z,10.61
2018-04-28T02:04:58.220Z,10.68
2018-04-28T02:09:59.196Z,10.49
2018-04-28T02:15:06.984Z,10.52
2018-04-28T02:20:13.893Z,10.42
2018-04-28T02:25:14.849Z,10.52
2018-04-28T02:30:15.806Z,10.57
2018-04-28T02:35:17.563Z,10.54
2018-04-28T02:46:02.397Z,10.35
2018-04-28T02:51:12.318Z,10.42
2018-04-28T02:56:20.412Z,10.32
2018-04-28T03:01:33.716Z,10.40
2018-04-28T03:06:50.586Z,10.40
2018-04-28T03:12:07.325Z,10.41
2018-04-28T03:17:09.116Z,10.49
2018-04-28T03:22:10.093Z,10.19
2018-04-28T03:27:11.875Z,10.35
2018-04-28T03:32:12.826Z,10.38
2018-04-28T03:37:20.550Z,10.29
2018-04-28T03:42:27.210Z,10.28
2018-04-28T03:53:03.831Z,10.05
2018-04-28T03:58:17.140Z,10.16
2018-04-28T04:03:22.088Z,10.31
2018-04-28T04:08:35.444Z,10.14
2018-04-28T04:13:50.072Z,9.95
2018-04-28T04:18:51.887Z,10.17
2018-04-28T04:29:37.664Z,10.14
2018-04-28T04:34:43.450Z,10.44
2018-04-28T04:39:56.602Z,10.61
2018-04-28T04:45:18.262Z,10.75
2018-04-28T04:56:20.489Z,10.77
2018-04-28T05:07:00.690Z,10.78
2018-04-28T05:18:02.429Z,10.98
2018-04-28T05:23:15.552Z,11.03
2018-04-28T05:28:23.742Z,10.99
2018-04-28T05:33:37.214Z,10.93
2018-04-28T05:50:14.812Z,11.81
2018-04-28T05:55:31.742Z,11.68
2018-04-28T06:00:32.714Z,11.79
2018-04-28T06:05:38.563Z,12.11
2018-04-28T06:10:46.486Z,12.10
2018-04-28T06:15:59.841Z,12.20
2018-04-28T06:21:03.385Z,12.51
2018-04-28T06:26:04.451Z,12.61
2018-04-28T06:31:05.335Z,12.75
2018-04-28T06:36:06.324Z,12.73
2018-04-28T06:41:07.385Z,13.14
2018-04-28T06:46:08.326Z,13.18
2018-04-28T06:51:09.309Z,13.36
2018-04-28T06:56:10.273Z,13.55
2018-04-28T07:01:11.260Z,13.61
2018-04-28T07:06:12.224Z,13.71
2018-04-28T07:11:13.229Z,13.85
2018-04-28T07:16:14.217Z,13.99
2018-04-28T07:21:15.419Z,14.28
2018-04-28T07:26:16.368Z,14.18
2018-04-28T07:31:17.372Z,14.10
2018-04-28T07:36:18.362Z,14.26
2018-04-28T07:41:19.344Z,14.33
2018-04-28T07:46:20.326Z,14.50
2018-04-28T07:51:21.295Z,14.71
2018-04-28T07:56:22.276Z,14.93
2018-04-28T08:01:23.244Z,15.10
2018-04-28T08:06:24.216Z,14.93
2018-04-28T08:11:25.297Z,15.04
2018-04-28T08:16:28.085Z,15.20
2018-04-28T08:21:29.198Z,15.15
2018-04-28T08:26:30.185Z,15.37
2018-04-28T08:31:31.167Z,15.40
2018-04-28T08:36:32.146Z,15.78
2018-04-28T08:41:33.144Z,15.88
2018-04-28T08:46:34.123Z,15.56
2018-04-28T08:51:35.117Z,15.58
2018-04-28T08:57:48.270Z,15.52
2018-04-28T09:02:49.257Z,15.38
2018-04-28T09:07:50.226Z,15.26
2018-04-28T09:12:51.222Z,15.30
2018-04-28T09:17:52.234Z,15.33
2018-04-28T09:22:53.252Z,15.44
2018-04-28T09:27:54.206Z,15.46
2018-04-28T09:32:55.258Z,15.60
2018-04-28T09:37:56.176Z,16.53
2018-04-28T09:42:57.143Z,17.02
2018-04-28T09:47:58.111Z,17.41
2018-04-28T09:52:59.068Z,17.69
2018-04-28T09:58:05.739Z,17.13
2018-04-28T10:03:06.707Z,16.91
2018-04-28T10:08:07.699Z,16.70
2018-04-28T10:13:08.664Z,17.30
2018-04-28T10:18:09.683Z,17.12
2018-04-28T10:23:10.650Z,17.36
2018-04-28T10:28:11.634Z,17.29
2018-04-28T10:33:12.615Z,17.22
2018-04-28T10:38:13.604Z,17.88
2018-04-28T10:43:14.595Z,17.54
2018-04-28T10:48:15.584Z,17.39
2018-04-28T10:53:16.575Z,17.15
2018-04-28T10:58:17.557Z,17.79
2018-04-28T11:03:18.541Z,18.09
2018-04-28T11:08:19.532Z,17.66
2018-04-28T11:13:20.525Z,17.33
2018-04-28T11:18:21.575Z,17.59
2018-04-28T11:23:24.431Z,17.56
2018-04-28T11:28:25.668Z,17.23
2018-04-28T11:33:26.722Z,17.09
2018-04-28T11:38:27.738Z,17.39
2018-04-28T11:43:28.718Z,17.67
2018-04-28T11:48:29.765Z,17.62
2018-04-28T11:53:30.750Z,17.13
2018-04-28T11:58:31.715Z,17.20
2018-04-28T12:03:32.711Z,17.47
2018-04-28T12:08:33.687Z,17.72
2018-04-28T12:13:34.665Z,18.90
2018-04-28T12:18:35.695Z,19.14
2018-04-28T12:23:36.743Z,18.54
2018-04-28T12:28:37.723Z,17.25
2018-04-28T12:33:38.737Z,17.00
2018-04-28T12:38:39.743Z,16.41
2018-04-28T12:43:40.831Z,16.14
2018-04-28T12:48:41.846Z,15.89
2018-04-28T12:53:42.836Z,15.10
2018-04-28T12:58:43.806Z,14.99
2018-04-28T13:03:44.827Z,14.51
2018-04-28T13:08:45.819Z,14.58
2018-04-28T13:13:46.794Z,14.67
2018-04-28T13:18:47.812Z,15.58
2018-04-28T13:23:48.853Z,15.29
2018-04-28T13:28:49.849Z,15.65
2018-04-28T13:33:50.853Z,15.22
2018-04-28T13:38:51.825Z,15.48
2018-04-28T13:43:52.828Z,15.40
2018-04-28T13:48:53.837Z,15.55
2018-04-28T13:53:54.806Z,17.14
2018-04-28T13:58:55.827Z,18.79
2018-04-28T14:03:56.836Z,18.20
2018-04-28T14:08:57.883Z,17.49
2018-04-28T14:13:58.888Z,16.42
2018-04-28T14:18:59.904Z,16.28
2018-04-28T14:24:00.957Z,16.24
2018-04-28T14:29:01.959Z,15.95
2018-04-28T14:34:02.949Z,16.07
2018-04-28T14:39:04.029Z,15.62
2018-04-28T14:44:05.135Z,15.47
2018-04-28T14:49:06.103Z,15.48
2018-04-28T14:54:07.089Z,15.39
2018-04-28T14:59:08.063Z,15.44
2018-04-28T15:04:09.046Z,15.34
2018-04-28T15:09:10.007Z,14.89
2018-04-28T15:14:11.014Z,15.20
2018-04-28T15:19:12.041Z,15.29
2018-04-28T15:24:13.094Z,15.17
2018-04-28T15:29:14.081Z,15.28
2018-04-28T15:34:15.028Z,14.60
2018-04-28T15:39:15.997Z,14.40
2018-04-28T15:44:16.983Z,15.12
2018-04-28T15:49:17.977Z,15.16
2018-04-28T15:54:18.950Z,15.12
2018-04-28T15:59:19.941Z,14.43
2018-04-28T16:04:20.928Z,14.79
2018-04-28T16:09:21.916Z,15.27
2018-04-28T16:14:22.884Z,14.81
2018-04-28T16:19:23.904Z,14.93
2018-04-28T16:24:24.911Z,15.11
2018-04-28T16:29:25.883Z,15.24
2018-04-28T16:34:26.871Z,15.15
2018-04-28T16:39:27.860Z,15.53
2018-04-28T16:44:28.840Z,15.52
2018-04-28T16:49:29.860Z,15.17
2018-04-28T16:54:30.837Z,15.02
2018-04-28T16:59:31.828Z,14.92
2018-04-28T17:04:32.809Z,14.64
2018-04-28T17:09:33.768Z,15.65
2018-04-28T17:14:34.766Z,15.42
2018-04-28T17:19:35.880Z,15.47
2018-04-28T17:24:36.887Z,15.55
2018-04-28T17:29:37.896Z,14.61
2018-04-28T17:34:38.900Z,14.18
2018-04-28T17:39:39.913Z,14.21
2018-04-28T17:44:40.930Z,14.42
2018-04-28T17:49:41.930Z,14.86
2018-04-28T17:54:42.912Z,14.06
2018-04-28T17:59:43.882Z,14.20
2018-04-28T18:04:44.907Z,14.22
2018-04-28T18:09:45.931Z,14.50
2018-04-28T18:14:46.923Z,14.23
2018-04-28T18:19:47.950Z,14.18
2018-04-28T18:24:48.946Z,14.14
2018-04-28T18:29:49.942Z,14.54
2018-04-28T18:34:50.934Z,14.52
2018-04-28T18:39:51.951Z,14.52
2018-04-28T18:44:52.973Z,14.55
2018-04-28T18:49:53.938Z,14.15
2018-04-28T18:54:54.925Z,13.47
2018-04-28T18:59:55.942Z,13.41
2018-04-28T19:04:56.958Z,13.07
2018-04-28T19:09:57.934Z,13.15
2018-04-28T19:14:58.925Z,13.74
2018-04-28T19:20:00.349Z,13.46
2018-04-28T19:25:01.393Z,13.43
2018-04-28T19:30:02.401Z,13.28
2018-04-28T19:35:03.401Z,13.32
2018-04-28T19:40:04.372Z,14.03
2018-04-28T19:45:05.356Z,13.89
2018-04-28T19:50:06.353Z,13.49
2018-04-28T19:55:07.348Z,13.23
2018-04-28T20:00:08.362Z,13.16
2018-04-28T20:05:09.365Z,13.43
2018-04-28T20:10:10.400Z,13.15
2018-04-28T20:15:11.398Z,13.45
2018-04-28T20:20:12.448Z,13.61
2018-04-28T20:25:17.413Z,13.31
2018-04-28T20:30:18.464Z,13.43
2018-04-28T20:35:19.412Z,13.48
2018-04-28T20:40:20.384Z,13.30
2018-04-28T20:45:21.361Z,13.18
2018-04-28T20:50:22.373Z,13.16
2018-04-28T20:55:23.360Z,13.75
2018-04-28T21:00:24.320Z,13.78
2018-04-28T21:05:25.340Z,13.79
2018-04-28T21:10:26.317Z,13.67
2018-04-28T21:15:27.337Z,13.12
2018-04-28T21:20:28.347Z,12.94
2018-04-28T21:25:29.351Z,12.88
2018-04-28T21:30:30.359Z,12.75
2018-04-28T21:35:31.340Z,13.01
2018-04-28T21:40:32.320Z,13.30
2018-04-28T21:45:33.303Z,13.41
2018-04-28T21:50:34.288Z,12.83
2018-04-28T21:55:35.267Z,12.71
2018-04-28T22:00:36.255Z,12.68
2018-04-28T22:05:37.223Z,13.02
2018-04-28T22:10:38.236Z,12.67
2018-04-28T22:15:39.208Z,12.84
2018-04-28T22:20:40.199Z,12.89
2018-04-28T22:25:41.219Z,13.08
2018-04-28T22:30:42.213Z,12.58
2018-04-28T22:35:43.168Z,12.86
2018-04-28T22:40:44.197Z,12.89
2018-04-28T22:45:45.185Z,12.41
2018-04-28T22:50:46.165Z,12.51
2018-04-28T22:55:47.181Z,12.42
2018-04-28T23:00:48.172Z,12.24
2018-04-28T23:05:49.156Z,12.60
2018-04-28T23:10:50.152Z,12.84
2018-04-28T23:15:51.133Z,12.64
2018-04-28T23:20:52.151Z,12.70
2018-04-28T23:25:53.126Z,12.50
2018-04-28T23:30:54.148Z,12.73
2018-04-28T23:35:55.116Z,12.75
2018-04-28T23:40:56.112Z,12.51
2018-04-28T23:45:57.128Z,12.38
2018-04-28T23:50:58.080Z,12.12
2018-04-28T23:55:59.052Z,11.85
